Time;durP1;ratioP1;P1;durP2;ratioP2;P2;SDS_P1;SDS_P2;PMS_P1;PMS_P2;Temp;Humidity;BMP_temperature;BMP_pressure;BME280_temperature;BME280_humidity;BME280_pressure;Samples;Min_cycle;Max_cycle;Signal;HPM_P1;HPM_P2
2022/03/14 00:00:12;;;;;;;17.05;10.93;;;5.60;63.00;;;;;;5041255;28;20041;-68
2022/03/14 00:02:39;;;;;;;18.55;10.85;;;5.80;62.90;;;;;;4684585;28;10000777;-68
2022/03/14 00:05:05;;;;;;;17.55;11.32;;;5.90;61.90;;;;;;5036227;28;20021;-68
2022/03/14 00:07:35;;;;;;;17.25;9.93;;;5.90;61.40;;;;;;5044349;28;20039;-68
2022/03/14 00:10:02;;;;;;;15.05;10.55;;;5.90;60.60;;;;;;5043258;28;20029;-68
2022/03/14 00:12:30;;;;;;;16.23;10.88;;;5.90;61.20;;;;;;5037151;28;20028;-68
2022/03/14 00:14:56;;;;;;;14.55;10.75;;;5.90;62.40;;;;;;5038426;28;20135;-68
2022/03/14 00:17:25;;;;;;;17.20;11.52;;;5.80;62.70;;;;;;5046840;28;20029;-68
2022/03/14 00:19:51;;;;;;;20.15;12.32;;;5.80;62.80;;;;;;5052109;28;20033;-69
2022/03/14 00:22:19;;;;;;;18.50;11.85;;;5.80;62.10;;;;;;5040567;28;20108;-69
2022/03/14 00:24:45;;;;;;;16.58;11.68;;;5.90;61.30;;;;;;5032412;28;20033;-68
2022/03/14 00:27:11;;;;;;;16.83;11.15;;;5.90;61.80;;;;;;5044954;28;20494;-68
2022/03/14 00:29:37;;;;;;;16.52;10.85;;;6.00;61.70;;;;;;5044045;28;20107;-68
2022/03/14 00:32:02;;;;;;;18.70;10.60;;;6.00;61.50;;;;;;5041014;28;20555;-68
2022/03/14 00:34:28;;;;;;;17.17;11.15;;;6.00;61.20;;;;;;5041933;28;20033;-68
2022/03/14 00:36:54;;;;;;;17.77;11.63;;;6.00;60.90;;;;;;5045626;28;20024;-68
2022/03/14 00:39:20;;;;;;;18.67;11.38;;;6.00;60.70;;;;;;5051080;28;20143;-68
2022/03/14 00:41:46;;;;;;;17.85;10.95;;;6.10;60.80;;;;;;5041352;28;20025;-69
2022/03/14 00:44:15;;;;;;;17.15;10.60;;;6.10;60.60;;;;;;5039735;28;20120;-68
2022/03/14 00:46:41;;;;;;;16.02;10.50;;;6.10;61.40;;;;;;5046319;28;20036;-68
2022/03/14 00:49:07;;;;;;;16.67;10.35;;;6.00;61.20;;;;;;5041439;28;20036;-69
2022/03/14 00:51:35;;;;;;;19.98;11.13;;;5.90;61.50;;;;;;5055629;28;20499;-69
2022/03/14 00:54:05;;;;;;;14.88;9.88;;;5.90;62.50;;;;;;5046925;28;20392;-69
2022/03/14 00:56:31;;;;;;;16.95;10.48;;;5.90;62.80;;;;;;5054565;28;20103;-69
2022/03/14 00:59:00;;;;;;;18.15;10.48;;;5.90;63.50;;;;;;5058587;28;20720;-69
2022/03/14 01:01:28;;;;;;;17.35;11.10;;;5.90;62.90;;;;;;5040351;28;20033;-68
2022/03/14 01:03:54;;;;;;;17.85;10.88;;;6.00;61.30;;;;;;5033746;28;20582;-68
2022/03/14 01:06:21;;;;;;;16.67;10.75;;;6.00;60.30;;;;;;5033495;28;20037;-68
2022/03/14 01:08:46;;;;;;;18.75;12.02;;;6.10;60.10;;;;;;5041114;28;20055;-69
2022/03/14 01:11:12;;;;;;;20.80;13.18;;;6.10;62.70;;;;;;5046558;28;20449;-69
2022/03/14 01:13:38;;;;;;;22.58;13.13;;;6.10;63.70;;;;;;5033694;28;20036;-68
2022/03/14 01:16:04;;;;;;;20.42;12.30;;;6.10;64.20;;;;;;5036945;28;20029;-68
2022/03/14 01:18:30;;;;;;;20.23;12.43;;;6.00;64.20;;;;;;5036560;28;20507;-68
2022/03/14 01:20:56;;;;;;;19.38;11.75;;;6.00;64.50;;;;;;5040731;28;20413;-68
2022/03/14 01:23:22;;;;;;;21.90;12.98;;;5.90;64.00;;;;;;5040106;28;20387;-68
2022/03/14 01:25:49;;;;;;;18.48;12.68;;;5.90;65.10;;;;;;5031087;28;20021;-68
2022/03/14 01:28:15;;;;;;;21.67;13.60;;;5.90;66.20;;;;;;5038651;28;20428;-68
2022/03/14 01:30:43;;;;;;;20.05;13.35;;;5.90;66.50;;;;;;5039906;28;20032;-69
2022/03/14 01:33:09;;;;;;;18.08;12.27;;;5.90;67.00;;;;;;5035518;28;20041;-68
2022/03/14 01:35:35;;;;;;;21.08;13.20;;;5.70;67.40;;;;;;5036117;28;20155;-68
2022/03/14 01:38:01;;;;;;;20.80;12.75;;;5.60;67.50;;;;;;5039800;28;20033;-69
2022/03/14 01:40:28;;;;;;;19.83;13.35;;;5.40;68.00;;;;;;5040321;28;20032;-68
2022/03/14 01:42:53;;;;;;;21.63;13.68;;;5.30;69.00;;;;;;5042585;28;20468;-68
2022/03/14 01:45:19;;;;;;;18.88;12.88;;;5.30;68.70;;;;;;5043245;28;20026;-68
2022/03/14 01:47:45;;;;;;;23.73;13.02;;;5.20;69.10;;;;;;5042460;28;20036;-68
2022/03/14 01:50:13;;;;;;;19.13;13.18;;;5.20;68.80;;;;;;5044987;28;20040;-69
2022/03/14 01:52:40;;;;;;;19.70;13.48;;;5.20;68.50;;;;;;5030993;28;20025;-68
2022/03/14 01:55:07;;;;;;;21.27;13.38;;;5.20;69.00;;;;;;5029862;28;20083;-68
2022/03/14 01:57:34;;;;;;;20.63;13.90;;;5.10;69.90;;;;;;5031431;28;20043;-68
2022/03/14 02:00:00;;;;;;;20.85;13.30;;;5.10;70.70;;;;;;5037077;28;20388;-68
2022/03/14 02:02:26;;;;;;;21.63;13.80;;;5.00;70.90;;;;;;5038583;28;20025;-69
2022/03/14 02:04:53;;;;;;;20.50;13.70;;;4.90;71.10;;;;;;5035465;28;20040;-68
2022/03/14 02:07:20;;;;;;;20.92;13.15;;;4.90;71.20;;;;;;5054510;28;20400;-68
2022/03/14 02:09:46;;;;;;;23.15;14.40;;;4.80;71.20;;;;;;5044002;28;20037;-69
2022/03/14 02:12:12;;;;;;;21.55;13.02;;;4.80;71.60;;;;;;5038716;28;20030;-69
2022/03/14 02:14:39;;;;;;;21.17;13.65;;;4.80;72.00;;;;;;5056737;28;20032;-69
2022/03/14 02:17:07;;;;;;;19.98;13.38;;;4.80;72.80;;;;;;5046481;28;20403;-68
2022/03/14 02:19:33;;;;;;;21.23;12.70;;;4.80;72.80;;;;;;5055279;28;20020;-69
2022/03/14 02:21:58;;;;;;;21.05;13.77;;;4.80;72.70;;;;;;5039776;28;20036;-68
2022/03/14 02:24:28;;;;;;;24.52;14.00;;;4.80;73.70;;;;;;5052926;28;20040;-69
2022/03/14 02:26:54;;;;;;;25.50;15.70;;;4.80;73.20;;;;;;5048809;28;20098;-68
2022/03/14 02:29:20;;;;;;;21.85;14.57;;;4.80;73.10;;;;;;5013092;28;20104;-68
2022/03/14 02:31:46;;;;;;;25.60;15.10;;;4.80;73.20;;;;;;5036692;28;20029;-68
2022/03/14 02:34:12;;;;;;;26.33;16.25;;;4.80;74.00;;;;;;5028664;28;20040;-68
2022/03/14 02:36:39;;;;;;;28.52;16.63;;;4.80;74.50;;;;;;5023823;28;20121;-68
2022/03/14 02:39:08;;;;;;;24.92;16.42;;;4.70;74.40;;;;;;5013847;28;20358;-68
2022/03/14 02:41:35;;;;;;;25.52;16.38;;;4.70;73.90;;;;;;5022654;28;20044;-68
2022/03/14 02:44:06;;;;;;;23.02;15.52;;;4.70;73.90;;;;;;5024175;28;20088;-68
2022/03/14 02:46:34;;;;;;;25.75;15.75;;;4.70;73.90;;;;;;5027343;28;20128;-69
2022/03/14 02:49:01;;;;;;;24.02;15.27;;;4.70;74.10;;;;;;5028251;28;20040;-68
2022/03/14 02:51:27;;;;;;;24.63;15.38;;;4.70;73.90;;;;;;5028794;28;20036;-69
2022/03/14 02:53:55;;;;;;;25.98;16.08;;;4.70;73.70;;;;;;5039023;28;20651;-68
2022/03/14 02:56:21;;;;;;;22.75;14.82;;;4.80;73.50;;;;;;5017192;28;20034;-68
2022/03/14 02:58:51;;;;;;;28.45;15.98;;;4.70;73.20;;;;;;5024812;28;20029;-68
2022/03/14 03:01:18;;;;;;;23.23;14.88;;;4.80;73.10;;;;;;5026736;28;20038;-69
2022/03/14 03:03:43;;;;;;;24.27;15.30;;;4.70;72.90;;;;;;5022799;28;20252;-68
2022/03/14 03:06:10;;;;;;;26.58;15.32;;;4.70;72.80;;;;;;5025616;28;20370;-68
2022/03/14 03:08:36;;;;;;;25.40;15.90;;;4.70;73.30;;;;;;5019155;28;20052;-68
2022/03/14 03:11:04;;;;;;;23.23;15.27;;;4.70;73.10;;;;;;5015904;28;20099;-68
2022/03/14 03:13:29;;;;;;;23.05;14.63;;;4.70;72.30;;;;;;5023238;28;20065;-68
2022/03/14 03:15:55;;;;;;;22.83;14.77;;;4.70;72.10;;;;;;5017354;28;20057;-68
2022/03/14 03:18:22;;;;;;;24.75;14.90;;;4.70;71.90;;;;;;5028121;28;20553;-69
2022/03/14 03:20:48;;;;;;;28.17;14.73;;;4.70;72.10;;;;;;5021256;28;20397;-68
2022/03/14 03:23:13;;;;;;;26.13;15.00;;;4.70;72.10;;;;;;5020542;28;20029;-68
2022/03/14 03:25:39;;;;;;;21.10;13.93;;;4.70;71.40;;;;;;5030363;28;20400;-68
2022/03/14 03:28:04;;;;;;;20.80;13.38;;;4.80;70.20;;;;;;5029743;28;20122;-68
2022/03/14 03:30:30;;;;;;;22.15;13.60;;;4.90;68.70;;;;;;5012248;28;20026;-69
2022/03/14 03:32:55;;;;;;;20.48;13.48;;;4.90;70.40;;;;;;5027246;28;20485;-69
2022/03/14 03:35:21;;;;;;;23.90;14.68;;;4.90;71.70;;;;;;5021249;28;20092;-68
2022/03/14 03:37:47;;;;;;;21.98;13.52;;;5.00;72.20;;;;;;5040314;28;20075;-68
2022/03/14 03:40:12;;;;;;;22.75;13.80;;;5.10;72.20;;;;;;5046155;28;20212;-68
2022/03/14 03:42:38;;;;;;;22.75;14.60;;;5.10;72.20;;;;;;5027070;28;20029;-68
2022/03/14 03:45:05;;;;;;;20.67;13.05;;;5.10;72.20;;;;;;5015773;28;20053;-68
2022/03/14 03:47:31;;;;;;;23.90;14.65;;;5.10;72.20;;;;;;5022766;28;20440;-68
2022/03/14 03:49:57;;;;;;;23.45;14.90;;;5.10;71.70;;;;;;5027793;28;20099;-68
2022/03/14 03:52:23;;;;;;;27.23;15.40;;;5.10;72.20;;;;;;5033303;28;20029;-68
2022/03/14 03:54:48;;;;;;;24.60;16.05;;;5.10;74.60;;;;;;5007631;28;20076;-68
2022/03/14 03:57:14;;;;;;;24.45;15.55;;;5.10;75.70;;;;;;5026028;28;20023;-68
2022/03/14 03:59:40;;;;;;;26.15;15.50;;;5.00;75.90;;;;;;5029371;28;22509;-68
2022/03/14 04:02:06;;;;;;;26.52;16.10;;;4.90;76.10;;;;;;5044846;28;20485;-69
2022/03/14 04:04:36;;;;;;;23.40;16.80;;;4.90;77.10;;;;;;5014700;28;20123;-68
2022/03/14 04:07:02;;;;;;;30.30;17.58;;;4.80;77.60;;;;;;5021898;28;20037;-68
2022/03/14 04:09:27;;;;;;;28.05;16.85;;;4.70;78.60;;;;;;5022342;28;20103;-68
2022/03/14 04:11:53;;;;;;;26.33;16.35;;;4.70;79.10;;;;;;5011592;28;20485;-68
2022/03/14 04:14:20;;;;;;;29.65;17.50;;;4.60;79.50;;;;;;5011883;28;20041;-68
2022/03/14 04:16:46;;;;;;;26.70;17.35;;;4.60;79.80;;;;;;5017754;28;20029;-68
2022/03/14 04:19:12;;;;;;;28.00;17.25;;;4.50;79.80;;;;;;5019281;28;20095;-68
2022/03/14 04:21:39;;;;;;;29.13;18.77;;;4.50;80.70;;;;;;5013600;28;20033;-68
2022/03/14 04:24:06;;;;;;;30.15;19.33;;;4.50;81.70;;;;;;5027943;28;20378;-68
2022/03/14 04:26:32;;;;;;;31.85;19.42;;;4.50;82.40;;;;;;5023902;28;20034;-68
2022/03/14 04:28:58;;;;;;;29.08;18.73;;;4.40;83.40;;;;;;5033418;28;20056;-68
2022/03/14 04:31:24;;;;;;;32.35;19.08;;;4.40;85.00;;;;;;5021263;28;20029;-68
2022/03/14 04:33:49;;;;;;;31.00;19.23;;;4.40;86.10;;;;;;5025500;28;20029;-68
2022/03/14 04:36:15;;;;;;;32.58;20.52;;;4.30;87.20;;;;;;5030620;28;20053;-68
2022/03/14 04:38:41;;;;;;;33.63;18.83;;;4.20;88.40;;;;;;5023286;28;20100;-69
2022/03/14 04:41:06;;;;;;;30.48;19.00;;;4.10;89.50;;;;;;5037058;28;20052;-68
2022/03/14 04:43:33;;;;;;;32.25;19.95;;;4.00;90.20;;;;;;5013790;28;20034;-68
2022/03/14 04:45:58;;;;;;;32.03;19.70;;;4.00;90.80;;;;;;5036092;28;20448;-68
2022/03/14 04:48:24;;;;;;;31.67;19.20;;;4.00;91.50;;;;;;5025820;28;20033;-68
2022/03/14 04:50:50;;;;;;;35.53;20.55;;;4.10;91.80;;;;;;5032366;28;20039;-69
2022/03/14 04:53:17;;;;;;;32.58;20.13;;;4.10;92.00;;;;;;5032902;28;20029;-68
2022/03/14 04:55:44;;;;;;;31.63;19.75;;;4.10;92.10;;;;;;5023466;28;20021;-69
2022/03/14 04:58:14;;;;;;;33.63;20.20;;;4.10;92.50;;;;;;5022491;28;20064;-68
2022/03/14 05:00:41;;;;;;;31.98;19.20;;;4.10;92.20;;;;;;5009892;28;20025;-68
2022/03/14 05:03:08;;;;;;;36.38;19.70;;;4.10;92.10;;;;;;5029319;28;20037;-68
2022/03/14 05:05:34;;;;;;;27.88;17.90;;;4.10;91.90;;;;;;5035513;28;20039;-68
2022/03/14 05:08:01;;;;;;;30.13;18.25;;;4.20;91.70;;;;;;5022326;28;20029;-68
2022/03/14 05:10:27;;;;;;;32.38;18.23;;;4.20;91.50;;;;;;5035497;28;20033;-68
2022/03/14 05:12:52;;;;;;;31.30;18.05;;;4.20;91.70;;;;;;5022705;28;20045;-68
2022/03/14 05:15:19;;;;;;;31.73;17.48;;;4.30;92.00;;;;;;5019942;28;20412;-68
2022/03/14 05:17:45;;;;;;;27.02;17.48;;;4.30;92.10;;;;;;5005521;28;20455;-68
2022/03/14 05:20:12;;;;;;;27.67;17.25;;;4.40;92.20;;;;;;5019553;28;20026;-68
2022/03/14 05:22:48;;;;;;;29.65;17.15;;;4.40;92.30;;;;;;5020685;28;20034;-68
2022/03/14 05:25:16;;;;;;;29.85;18.33;;;4.40;92.50;;;;;;5026346;28;20061;-68
2022/03/14 05:27:42;;;;;;;32.47;17.42;;;4.40;92.70;;;;;;5019691;28;20191;-68
2022/03/14 05:30:08;;;;;;;31.58;17.20;;;4.40;92.70;;;;;;5014130;28;20429;-68
2022/03/14 05:32:39;;;;;;;28.30;17.27;;;4.40;93.00;;;;;;5033233;28;20507;-68
2022/03/14 05:35:06;;;;;;;29.25;16.63;;;4.40;93.50;;;;;;5021853;28;20037;-68
2022/03/14 05:37:31;;;;;;;30.27;17.52;;;4.40;93.70;;;;;;5029674;28;20393;-68
2022/03/14 05:39:57;;;;;;;26.48;17.42;;;4.40;94.10;;;;;;5038837;28;20071;-68
2022/03/14 05:42:23;;;;;;;28.58;17.33;;;4.40;94.00;;;;;;5023499;28;20044;-68
2022/03/14 05:44:49;;;;;;;30.55;17.85;;;4.40;93.90;;;;;;5019175;28;20041;-68
2022/03/14 05:47:14;;;;;;;28.98;18.40;;;4.40;93.90;;;;;;5018968;28;20032;-68
2022/03/14 05:49:40;;;;;;;36.72;20.92;;;4.50;93.90;;;;;;5022660;28;20064;-68
2022/03/14 05:52:06;;;;;;;40.78;23.08;;;4.50;93.80;;;;;;5028247;28;20036;-69
2022/03/14 05:54:34;;;;;;;33.55;20.15;;;4.50;93.90;;;;;;5021744;28;20507;-68
2022/03/14 05:57:00;;;;;;;31.23;18.45;;;4.60;93.80;;;;;;5038516;28;20040;-68
2022/03/14 05:59:25;;;;;;;28.88;18.77;;;4.60;94.30;;;;;;5026991;28;20033;-68
2022/03/14 06:01:51;;;;;;;33.10;19.27;;;4.70;95.10;;;;;;5023743;28;20033;-68
2022/03/14 06:04:17;;;;;;;31.73;19.45;;;4.70;95.60;;;;;;5024378;28;20037;-68
2022/03/14 06:06:43;;;;;;;29.63;18.60;;;4.70;96.30;;;;;;5028761;28;20375;-68
2022/03/14 06:09:09;;;;;;;32.50;20.45;;;4.70;96.40;;;;;;5029982;28;20038;-68
2022/03/14 06:11:34;;;;;;;29.58;18.38;;;4.70;96.60;;;;;;4316076;28;10001043;-68
2022/03/14 06:14:00;;;;;;;31.15;19.08;;;4.80;96.80;;;;;;5017536;28;20505;-69
2022/03/14 06:16:26;;;;;;;30.05;18.58;;;4.80;96.80;;;;;;5014357;28;20394;-68
2022/03/14 06:18:52;;;;;;;30.58;18.55;;;4.90;96.70;;;;;;5008894;28;20057;-68
2022/03/14 06:21:17;;;;;;;31.48;19.42;;;4.90;96.50;;;;;;5005941;28;20025;-68
2022/03/14 06:23:43;;;;;;;31.10;19.92;;;5.00;96.50;;;;;;5005406;28;20041;-68
2022/03/14 06:26:09;;;;;;;32.22;20.70;;;5.00;96.60;;;;;;5012512;28;20037;-68
2022/03/14 06:28:34;;;;;;;35.00;20.50;;;5.10;96.80;;;;;;5020579;28;20129;-68
2022/03/14 06:31:00;;;;;;;31.48;20.50;;;5.10;97.40;;;;;;5023949;28;20065;-68
2022/03/14 06:33:26;;;;;;;35.22;20.42;;;5.20;97.50;;;;;;5031381;28;20401;-68
2022/03/14 06:35:51;;;;;;;32.25;20.90;;;5.20;98.10;;;;;;5024880;28;20025;-69
2022/03/14 06:38:17;;;;;;;31.15;21.10;;;5.30;99.00;;;;;;5038288;28;20175;-69
2022/03/14 06:40:43;;;;;;;37.17;23.05;;;5.30;99.90;;;;;;5041327;28;20067;-69
2022/03/14 06:43:13;;;;;;;36.22;20.50;;;5.30;99.90;;;;;;5039544;28;20115;-69
2022/03/14 06:45:41;;;;;;;31.65;20.75;;;5.30;99.90;;;;;;5039165;28;20029;-69
2022/03/14 06:48:07;;;;;;;35.35;21.73;;;5.20;99.90;;;;;;5051892;28;20036;-70
2022/03/14 06:50:36;;;;;;;33.92;21.52;;;5.20;99.90;;;;;;5053981;28;20112;-70
2022/03/14 06:53:03;;;;;;;33.45;22.00;;;5.20;99.90;;;;;;5040451;28;20742;-70
2022/03/14 06:55:28;;;;;;;34.58;22.45;;;5.10;99.90;;;;;;5045232;28;20040;-70
2022/03/14 06:57:54;;;;;;;39.80;22.45;;;5.10;99.90;;;;;;5044963;28;20037;-71
2022/03/14 07:00:20;;;;;;;34.88;23.02;;;5.10;99.90;;;;;;5033657;28;20060;-71
2022/03/14 07:02:46;;;;;;;38.67;24.55;;;5.00;99.90;;;;;;5035738;28;20025;-70
2022/03/14 07:05:13;;;;;;;38.35;24.73;;;5.00;99.90;;;;;;5030043;28;20293;-70
2022/03/14 07:07:40;;;;;;;34.67;22.98;;;4.90;99.90;;;;;;5047344;28;20207;-70
2022/03/14 07:10:06;;;;;;;38.60;24.08;;;4.90;99.90;;;;;;5049655;28;20037;-70
2022/03/14 07:12:35;;;;;;;39.42;25.45;;;4.80;99.90;;;;;;5037349;28;20060;-70
2022/03/14 07:15:01;;;;;;;39.38;25.10;;;4.70;99.90;;;;;;5044591;28;20068;-69
2022/03/14 07:17:27;;;;;;;43.42;27.10;;;4.70;99.90;;;;;;5039366;28;20488;-70
2022/03/14 07:19:53;;;;;;;43.53;26.95;;;4.70;99.90;;;;;;5047412;28;20116;-69
2022/03/14 07:22:19;;;;;;;40.05;25.05;;;4.70;99.90;;;;;;5050676;28;20443;-70
2022/03/14 07:24:47;;;;;;;40.78;24.92;;;4.70;99.90;;;;;;5041945;28;20055;-70
2022/03/14 07:27:13;;;;;;;41.92;25.42;;;4.60;99.90;;;;;;5042373;28;20029;-69
2022/03/14 07:29:38;;;;;;;40.85;25.23;;;4.60;99.90;;;;;;5038938;28;20035;-69
2022/03/14 07:32:05;;;;;;;42.50;25.92;;;4.60;99.90;;;;;;5045564;28;20041;-69
2022/03/14 07:34:31;;;;;;;39.45;24.58;;;4.60;99.90;;;;;;5033581;28;20476;-69
2022/03/14 07:36:57;;;;;;;42.70;25.92;;;4.60;99.90;;;;;;5043766;28;20041;-69
2022/03/14 07:39:23;;;;;;;42.13;27.02;;;4.60;99.90;;;;;;5040070;28;20099;-69
2022/03/14 07:41:48;;;;;;;45.47;25.20;;;4.60;99.90;;;;;;5043148;28;20057;-69
2022/03/14 07:44:14;;;;;;;43.90;26.40;;;4.60;99.90;;;;;;5038847;28;20039;-69
2022/03/14 07:46:39;;;;;;;40.83;25.65;;;4.60;99.90;;;;;;5043565;28;20026;-69
2022/03/14 07:49:05;;;;;;;44.53;27.30;;;4.70;99.90;;;;;;5050369;28;20056;-68
2022/03/14 07:51:32;;;;;;;52.63;30.73;;;4.80;99.90;;;;;;5035128;28;20090;-69
2022/03/14 07:53:58;;;;;;;56.22;32.85;;;4.80;99.90;;;;;;5047745;28;20440;-69
2022/03/14 07:56:23;;;;;;;44.08;27.25;;;4.90;99.90;;;;;;5042945;28;20452;-69
2022/03/14 07:58:49;;;;;;;43.28;25.92;;;4.90;99.90;;;;;;5050699;28;20029;-68
2022/03/14 08:01:17;;;;;;;41.15;26.25;;;4.90;99.90;;;;;;5042001;28;20035;-72
2022/03/14 08:03:43;;;;;;;37.80;24.48;;;5.00;99.90;;;;;;5050452;28;20029;-72
2022/03/14 08:06:11;;;;;;;40.03;25.05;;;5.00;99.90;;;;;;5038931;28;20039;-73
2022/03/14 08:08:36;;;;;;;40.78;24.20;;;5.00;99.90;;;;;;5043544;28;20052;-72
2022/03/14 08:11:04;;;;;;;35.97;23.83;;;5.10;99.90;;;;;;5041176;28;20087;-72
2022/03/14 08:13:30;;;;;;;39.92;23.48;;;5.10;99.90;;;;;;5030886;28;20052;-72
2022/03/14 08:15:56;;;;;;;39.10;24.80;;;5.20;99.90;;;;;;5045847;28;20025;-72
2022/03/14 08:18:22;;;;;;;39.78;24.02;;;5.30;99.90;;;;;;5039040;28;20029;-72
2022/03/14 08:20:53;;;;;;;38.03;23.17;;;5.30;99.90;;;;;;5047836;28;20098;-72
2022/03/14 08:23:19;;;;;;;37.85;23.02;;;5.30;99.90;;;;;;5042000;28;20028;-72
2022/03/14 08:25:46;;;;;;;35.58;23.02;;;5.30;99.90;;;;;;5034026;28;20029;-72
2022/03/14 08:28:12;;;;;;;38.00;24.05;;;5.30;99.90;;;;;;5036016;28;20513;-72
2022/03/14 08:30:38;;;;;;;35.03;24.33;;;5.30;99.90;;;;;;5042067;28;20040;-72
2022/03/14 08:33:06;;;;;;;38.60;23.50;;;5.30;99.90;;;;;;5044549;28;20599;-72
2022/03/14 08:35:32;;;;;;;36.13;24.45;;;5.40;99.90;;;;;;5039464;28;20032;-71
2022/03/14 08:37:59;;;;;;;36.72;24.45;;;5.50;99.90;;;;;;5032435;28;20471;-72
2022/03/14 08:40:26;;;;;;;36.63;25.67;;;5.60;99.90;;;;;;5045876;28;20029;-72
2022/03/14 08:42:53;;;;;;;39.50;26.67;;;5.70;99.90;;;;;;5038335;28;20049;-71
2022/03/14 08:45:19;;;;;;;36.33;24.95;;;5.80;99.90;;;;;;5033100;28;20404;-75
2022/03/14 08:47:45;;;;;;;38.00;25.50;;;5.90;99.90;;;;;;5042710;28;20114;-74
2022/03/14 08:50:13;;;;;;;42.70;28.70;;;5.90;99.90;;;;;;5045186;28;20075;-74
2022/03/14 08:52:39;;;;;;;43.60;28.95;;;6.00;99.90;;;;;;5048711;28;20112;-75
2022/03/14 08:55:05;;;;;;;39.33;24.77;;;6.00;99.90;;;;;;5031682;28;20052;-73
2022/03/14 08:57:32;;;;;;;36.15;25.38;;;6.10;99.90;;;;;;5056257;28;20051;-74
2022/03/14 08:59:57;;;;;;;47.13;32.67;;;6.20;99.90;;;;;;5053830;28;20040;-74
2022/03/14 09:02:23;;;;;;;42.85;30.02;;;6.30;99.90;;;;;;5043465;28;20025;-74
2022/03/14 09:04:49;;;;;;;52.95;34.10;;;6.40;99.90;;;;;;5031962;28;20122;-74
2022/03/14 09:07:28;;;;;;;38.22;24.73;;;6.40;99.90;;;;;;5031044;28;20123;-74
2022/03/14 09:09:54;;;;;;;38.42;26.17;;;6.50;99.90;;;;;;5046632;28;20036;-75
2022/03/14 09:12:20;;;;;;;38.65;25.48;;;6.50;99.90;;;;;;5043037;28;20056;-76
2022/03/14 09:14:46;;;;;;;42.28;28.13;;;;;;;;;;5041019;28;20036;-72
2022/03/14 09:17:12;;;;;;;38.50;25.60;;;6.60;99.90;;;;;;5039886;28;20234;-73
2022/03/14 09:19:38;;;;;;;38.22;25.42;;;6.60;99.90;;;;;;5061447;28;20036;-74
2022/03/14 09:22:04;;;;;;;40.17;25.92;;;6.60;99.90;;;;;;5043595;28;20027;-73
2022/03/14 09:24:30;;;;;;;33.72;23.63;;;6.60;99.90;;;;;;5034436;28;20108;-73
2022/03/14 09:26:59;;;;;;;34.70;24.20;;;6.60;99.90;;;;;;5034056;28;20029;-74
2022/03/14 09:29:25;;;;;;;37.22;25.73;;;6.70;99.90;;;;;;5020744;28;20156;-73
2022/03/14 09:31:51;;;;;;;36.17;24.92;;;6.70;99.90;;;;;;5015539;28;20482;-72
2022/03/14 09:34:16;;;;;;;32.88;22.83;;;6.80;99.90;;;;;;5019571;28;20385;-71
2022/03/14 09:36:42;;;;;;;33.70;22.35;;;6.80;99.90;;;;;;5007987;28;20302;-71
2022/03/14 09:39:12;;;;;;;32.35;22.50;;;6.80;99.90;;;;;;5018093;28;20477;-71
2022/03/14 09:41:40;;;;;;;32.35;21.88;;;6.90;99.90;;;;;;5021990;28;20026;-71
2022/03/14 09:44:09;;;;;;;33.95;23.55;;;6.90;99.90;;;;;;5012879;28;20030;-73
2022/03/14 09:46:39;;;;;;;30.90;21.65;;;7.00;99.90;;;;;;5013013;28;20091;-73
2022/03/14 09:49:09;;;;;;;36.95;24.33;;;7.00;99.90;;;;;;5023585;28;20021;-73
2022/03/14 09:51:39;;;;;;;33.83;22.98;;;7.00;99.90;;;;;;5027029;28;20447;-72
2022/03/14 09:54:07;;;;;;;33.70;24.17;;;7.00;99.90;;;;;;5014254;28;20042;-74
2022/03/14 09:56:33;;;;;;;36.35;23.33;;;7.00;99.90;;;;;;5013487;28;20034;-75
2022/03/14 09:59:00;;;;;;;31.60;21.17;;;7.00;99.90;;;;;;5012196;28;20099;-73
2022/03/14 10:01:26;;;;;;;34.50;23.23;;;;;;;;;;5021228;28;20148;-72
2022/03/14 10:03:52;;;;;;;34.60;25.02;;;7.10;99.90;;;;;;5017070;28;20029;-74
2022/03/14 10:06:18;;;;;;;35.55;23.67;;;7.10;99.90;;;;;;5016223;28;20033;-73
2022/03/14 10:08:44;;;;;;;33.40;23.02;;;7.10;99.90;;;;;;5008332;28;20672;-73
2022/03/14 10:11:09;;;;;;;35.17;23.17;;;7.20;99.90;;;;;;5032147;28;20071;-73
2022/03/14 10:13:37;;;;;;;33.17;22.55;;;7.20;99.90;;;;;;5014851;28;20032;-73
2022/03/14 10:16:04;;;;;;;35.67;24.13;;;7.30;99.90;;;;;;5021531;28;21190;-73
2022/03/14 10:18:50;;;;;;;31.35;22.08;;;7.30;99.90;;;;;;5014143;28;20495;-72
2022/03/14 10:21:51;;;;;;;36.53;24.98;;;7.30;99.90;;;;;;5022790;28;20045;-73
2022/03/14 10:24:21;;;;;;;56.03;31.73;;;7.40;99.90;;;;;;5013565;28;20051;-73
2022/03/14 10:26:46;;;;;;;47.05;27.65;;;7.40;99.90;;;;;;5010137;28;20445;-71
2022/03/14 10:29:15;;;;;;;43.55;28.08;;;7.50;99.90;;;;;;5038029;28;20049;-73
2022/03/14 10:31:46;;;;;;;44.08;27.23;;;7.50;99.90;;;;;;5036740;28;20033;-74
2022/03/14 10:34:15;;;;;;;40.72;26.85;;;7.50;99.90;;;;;;5035034;28;20733;-75
2022/03/14 10:36:47;;;;;;;42.22;27.40;;;7.40;99.90;;;;;;5040610;28;20463;-71
2022/03/14 10:39:15;;;;;;;39.60;25.83;;;7.40;99.90;;;;;;5051991;28;20021;-71
2022/03/14 10:41:41;;;;;;;40.00;26.13;;;7.50;99.90;;;;;;5036095;28;20025;-71
2022/03/14 10:44:07;;;;;;;36.55;24.88;;;7.60;99.90;;;;;;5039467;28;20119;-71
2022/03/14 10:46:38;;;;;;;36.47;24.05;;;7.60;99.90;;;;;;5044630;28;20052;-71
2022/03/14 10:49:09;;;;;;;35.90;24.58;;;7.60;99.90;;;;;;5045583;28;20036;-71
2022/03/14 10:51:51;;;;;;;44.33;29.13;;;7.70;99.90;;;;;;5051176;28;20476;-71
2022/03/14 10:54:17;;;;;;;70.97;40.65;;;7.80;99.90;;;;;;5043863;28;20073;-71
2022/03/14 10:57:00;;;;;;;37.13;26.02;;;7.80;99.90;;;;;;5045363;28;20053;-71
2022/03/14 10:59:51;;;;;;;27.95;18.95;;;7.80;99.90;;;;;;5044302;28;20191;-71
2022/03/14 11:02:23;;;;;;;37.83;25.15;;;7.80;99.90;;;;;;5051817;28;20067;-71
2022/03/14 11:04:59;;;;;;;38.63;23.27;;;7.90;99.90;;;;;;5042957;28;20029;-72
2022/03/14 11:07:32;;;;;;;34.45;24.17;;;8.10;99.90;;;;;;5066661;28;20039;-72
2022/03/14 11:10:06;;;;;;;32.72;22.90;;;8.20;99.90;;;;;;5047072;28;20068;-72
2022/03/14 11:12:31;;;;;;;32.88;22.40;;;8.30;99.90;;;;;;5041152;28;20045;-72
2022/03/14 11:15:02;;;;;;;30.08;20.83;;;8.40;99.90;;;;;;5033789;28;20025;-72
2022/03/14 11:17:35;;;;;;;26.40;18.92;;;8.50;99.90;;;;;;5040331;28;20064;-72
2022/03/14 11:20:01;;;;;;;26.90;19.88;;;8.50;99.90;;;;;;5039702;28;20025;-71
2022/03/14 11:22:29;;;;;;;26.17;20.00;;;8.50;99.90;;;;;;5044695;28;20508;-71
2022/03/14 11:24:57;;;;;;;27.40;19.77;;;8.50;99.90;;;;;;5045342;28;20021;-71
2022/03/14 11:27:23;;;;;;;24.85;19.02;;;8.50;99.90;;;;;;5036367;28;20191;-71
2022/03/14 11:29:52;;;;;;;23.38;17.38;;;8.50;99.90;;;;;;5044350;28;20020;-71
2022/03/14 11:32:19;;;;;;;23.08;16.67;;;8.60;99.90;;;;;;5053231;28;20028;-71
2022/03/14 11:34:47;;;;;;;28.20;18.95;;;8.50;99.90;;;;;;5038501;28;20041;-71
2022/03/14 11:37:14;;;;;;;25.70;19.50;;;8.50;99.90;;;;;;5038725;28;20311;-71
2022/03/14 11:39:40;;;;;;;25.85;19.55;;;8.50;99.90;;;;;;5037414;28;20035;-71
2022/03/14 11:42:06;;;;;;;23.88;17.48;;;8.50;99.90;;;;;;5047200;28;20029;-70
2022/03/14 11:44:32;;;;;;;24.92;18.27;;;8.50;99.90;;;;;;5038731;28;20024;-70
2022/03/14 11:46:58;;;;;;;23.58;17.85;;;8.40;99.90;;;;;;5047431;28;20035;-69
2022/03/14 11:49:27;;;;;;;24.15;17.42;;;8.40;99.90;;;;;;5048297;28;20044;-70
2022/03/14 11:52:19;;;;;;;23.55;17.25;;;8.40;99.90;;;;;;5042066;28;20843;-68
2022/03/14 11:54:59;;;;;;;25.15;17.40;;;8.40;99.90;;;;;;5039860;28;20033;-68
2022/03/14 11:57:38;;;;;;;24.42;17.98;;;8.30;99.90;;;;;;5035184;28;20044;-69
2022/03/14 12:00:21;;;;;;;24.85;16.88;;;8.30;99.90;;;;;;5039594;28;20033;-69
2022/03/14 12:02:55;;;;;;;23.98;17.17;;;8.40;99.90;;;;;;5040410;28;20020;-70
2022/03/14 12:05:42;;;;;;;23.83;17.48;;;8.40;99.90;;;;;;5035125;28;20029;-70
2022/03/14 12:08:13;;;;;;;24.75;16.70;;;8.50;99.90;;;;;;5029669;28;20155;-69
2022/03/14 12:10:39;;;;;;;22.98;16.63;;;8.50;99.90;;;;;;5053860;28;20026;-69
2022/03/14 12:13:05;;;;;;;21.65;15.95;;;8.60;99.90;;;;;;5040370;28;20035;-69
2022/03/14 12:15:41;;;;;;;20.88;15.70;;;;;;;;;;5041256;28;20539;-70
2022/03/14 12:18:37;;;;;;;21.02;14.95;;;8.90;99.90;;;;;;5038592;28;20073;-70
2022/03/14 12:21:43;;;;;;;17.85;12.27;;;8.80;99.90;;;;;;5033193;28;20037;-70
2022/03/14 12:24:18;;;;;;;16.98;11.63;;;8.90;99.90;;;;;;5037290;28;20400;-70
2022/03/14 12:26:44;;;;;;;17.08;12.18;;;8.90;99.90;;;;;;5046248;28;20055;-70
2022/03/14 12:29:40;;;;;;;16.58;11.80;;;8.90;99.90;;;;;;5053911;28;20500;-70
2022/03/14 12:32:31;;;;;;;14.65;11.13;;;8.90;99.90;;;;;;5041327;28;20032;-70
2022/03/14 12:35:10;;;;;;;14.73;11.05;;;9.00;99.90;;;;;;5035318;28;20556;-69
2022/03/14 12:37:50;;;;;;;15.52;11.15;;;9.00;99.90;;;;;;5034345;28;20501;-70
2022/03/14 12:40:21;;;;;;;15.18;11.15;;;9.10;99.90;;;;;;5043061;28;20650;-69